Enter the Airport ICAO Code

Search by Airport or City

Current Weather

GCTS | Tenerife-South Airport (Reina Sofia Airport)

Tenerife, Canary Islands, Spain

Last Update 5 Minutes Ago

Sky with Few Clouds

Temperature of 18 ºC

Light Winds from North

Temperature

18 ºC

Dew Point Temperature

14 ºC

Relative Humidity

77.57 %

Wind Direction

North (350º, Without Significant Variations)

Wind Velocity

7 km/h (04 kt)

Gusts

None

Visibility

Greater than 10 Kilometers

Sea Level Pressure

1015 hPa (Hectopascals)

Layers of Clouds

5% to 30% of Sky Covered from 914 mts (3000 ft) Above Ground Level.

METAR GCTS 022230Z 35004KT 9999 FEW030 18/14 Q1015 NOSIG

Weather Forecast

GCTS | Tenerife-South Airport (Reina Sofia Airport)

Tenerife, Canary Islands, Spain

Forecast valid for the next 22 Hours

From now on it is expected:

Sky with Few Clouds

Light to Moderate Winds from NorthWest

In 10 to 12 hours it is expected the begining of:

Moderate Winds from West

In 18 to 20 hours it is expected the begining of:

Light to Moderate Winds from NorthWest

Maximum Temperature

23 ºC in 15 Hours

Minimum Temperature

16 ºC in 8 Hours

TAF GCTS 022000Z 0221/0321 31006KT 9999 FEW030 TX23/0314Z TN16/0307Z BECMG 0309/0311 25013KT BECMG 0317/0319 31006KT